Dato Okriashvili

Olheiro - Dinamo Batumi
6 Fev 2028
Domingo
Processo

Personalidade

Adaptabilidade (1) Ambição (8) Controvérsia (12) Lealdade (5) Pressão (11) Profissionalismo (16) Espírito Esportivo (20) Temperamento (11)

Perfil

Estilo de Treinamento Democrático
Licença Continental B
Determinação 4
Gestão de Pessoas 4
Motivação 10
Disciplina 7
Satisfação no Trabalho
100%
Fadiga
0%
Função Olheiro
Salário 43.4K p/s
Contrato 14.03.2029

Desempenho

Comportamento Bom
Eficácia do Treinamento
28%
Desenvolvimento do Jogador
50%
Prevenção de Lesões
30%
Implementação Tática
30%

Eventos Recentes

Participou de uma reunião de recrutamento agora
Participou de uma reunião de recrutamento agora
Participou de uma reunião de recrutamento agora
Participou de uma reunião de recrutamento agora
Avaliou um jogador agora
Participou de uma reunião de recrutamento 7d atrás
Participou de uma reunião de recrutamento 7d atrás
Participou de uma reunião de recrutamento 7d atrás

Monitorando agora

61
Jogador Clube Status Habilidade Confiança Observado Última observação Último voto
Kamran Aliev SKA Khabarovsk Ativo 113 / 108 40% 3 05.02.2028 -
Bernat Guiu Virtus Entella Ativo 132 / 121 40% 1 05.02.2028 -
Germán Valera Elche Ativo 130 / 147 40% 1 02.02.2028 -
Olaf Kobacki Sheffield Wednesday Ativo 109 / 115 40% 1 02.02.2028 -
Lucas Pedraza Defensores Unidos Ativo 118 / 113 40% 1 01.02.2028 -
Agustín Gallo Tristán Suárez Ativo 105 / 122 40% 1 01.02.2028 -
Georgi Tartov Kolkheti Ativo 87 / 84 55% 1 17.01.2028 -
Ángel Tecpanécatl Chikhura Ativo 110 / 105 55% 1 10.01.2028 -
Sebastián Marfort Racing Ativo 86 / 92 40% 1 10.01.2028 -
Antony Alonso Deportivo Riestra Perdido 138 / 112 40% 1 10.01.2028 -
Daniel Montiel Torpedo Kutaisi Ativo 91 / 83 55% 1 02.01.2028 -
Nodar Lominadze Torpedo Kutaisi Ativo 122 / 114 40% 3 30.08.2027 -
Giorgi Beridze Dinamo Tbilisi Ativo 102 / 99 40% 1 24.08.2027 -
Iyed Haj Khalifa Dinamo Tbilisi Ativo 87 / 89 51% 1 14.06.2027 -
Dato Mchedlidze Tskhinvali Ativo 94 / 99 51% 1 03.06.2027 -
Ruslan Apekov Torpedo Moscow Ativo 111 / 103 40% 3 29.05.2027 -
Víctor Guzmán Sporting CP Ativo 85 / 105 40% 2 27.05.2027 -
Wilfried Kanga Al-Fateh Ativo 113 / 111 40% 2 25.05.2027 Mais informações
Morufdeen Moshood Leixões Ativo 95 / 101 40% 1 18.05.2027 -
Tenton Yenne Baltika Ativo 107 / 116 40% 1 16.05.2027 -
Egas Cacintura Akhmat Grozny Ativo 131 / 118 40% 2 14.05.2027 Mais informações
Kane Drummond Oldham Athletic Ativo 103 / 102 40% 1 14.05.2027 -
Prince Ibara Al-Njoom Ativo 115 / 91 40% 3 10.05.2027 Observar
Carlos Guerreño Hajer Ativo 101 / 111 40% 1 09.05.2027 -
Ekain Orobengoa Real Sociedad Ativo 104 / 101 40% 1 07.05.2027 -
Said Aliev Rotor Ativo 106 / 110 40% 2 30.04.2027 -
Yakou Meïté Damac Ativo 121 / 107 40% 1 29.04.2027 -
Vladislav Sarveli Nizhniy Novgorod Ativo 102 / 114 40% 1 27.04.2027 -
Mohamed Konaté Akhmat Grozny Ativo 115 / 114 40% 2 22.04.2027 -
Stanislav Biblyk Chaika Ativo 95 / 99 40% 3 20.04.2027 -
Leandro Antunes Al-Riyadh Ativo 99 / 127 40% 2 20.04.2027 -
Vyacheslav Grulev Nizhniy Novgorod Ativo 96 / 118 40% 1 19.04.2027 -
Daniil Kondrakov KDV Tomsk Ativo 105 / 92 40% 1 18.04.2027 -
David Karaev KAMAZ Ativo 108 / 95 40% 1 15.04.2027 -
Peter Olayinka Al-Wehda Ativo 128 / 114 40% 1 13.04.2027 -
Jonathan Okoronkwo Torpedo Moscow Ativo 117 / 97 40% 2 12.04.2027 -
Martin Sekulić Ural Ativo 109 / 122 40% 2 12.04.2027 -
Chinedu Geoffrey Krylya Sovetov Ativo 105 / 128 40% 2 11.04.2027 -
Job Ochieng Real Sociedad Ativo 111 / 103 40% 1 06.04.2027 -
Benedek Simon Sioni Ativo 80 / 85 30% 1 / 1m 31.03.2027 -
Alexandr Yushin Torpedo Moscow Ativo 108 / 111 40% 1 29.03.2027 -
Alexandr Saplinov Volga Ativo 83 / 99 40% 1 24.03.2027 -
François Kamano Sochi Ativo 112 / 107 40% 1 23.03.2027 -
Bantu Mzwakali Sioni Ativo 88 / 82 51% 1 25.01.2027 -
Daniel Kyerewaa Reading Ativo 121 / 109 40% 2 22.10.2026 -
Robert Mejía Orenburg Ativo 133 / 128 40% 1 22.10.2026 -
Lucas Cepeda Elche Ativo 117 / 130 40% 1 21.10.2026 -
Elliot Bonds Fleetwood Town Ativo 106 / 106 40% 1 21.10.2026 -
Ronaldo Vásquez Sumgayit Ativo 114 / 112 40% 1 19.10.2026 Mais informações
Ovella Ochieng KCB Ativo 74 / 83 40% 1 18.10.2026 -
Lewis Richards Crawley Town Ativo 104 / 104 40% 1 18.10.2026 -
Reda Khadra Qarabag Ativo 127 / 122 40% 1 15.10.2026 -
David Ozoh Derby County Ativo 119 / 135 40% 1 13.10.2026 -
Otar Parulava Dila Ativo 107 / 115 40% 1 11.10.2026 -
Jackson Dwang Posta Rangers Ativo 77 / 91 40% 1 05.10.2026 -
Alexis Steimbach Gimnasia La Plata Ativo 110 / 112 40% 1 16.09.2026 -
Nikoloz Mali Dila Ativo 99 / 111 40% 1 12.09.2026 -
Jan Đapo Dila Ativo 98 / 97 40% 1 12.09.2026 -
Adu Ares Eibar Ativo 126 / 125 40% 1 11.09.2026 -
Nodar Kavtaradze Merani Ativo 103 / 100 44% 1 10.08.2026 -
Jonmi Magunagoitia Eibar Ativo 132 / 130 40% 1 02.08.2026 -